createdAt,value
2023-01-04T00:02:01.563Z,98781.92
2023-01-04T00:04:29.864Z,98785.88
2023-01-04T00:06:58.031Z,98783.95
2023-01-04T00:09:26.340Z,98788.47
2023-01-04T00:11:54.567Z,98786.91
2023-01-04T00:14:22.749Z,98786.52
2023-01-04T00:16:51.000Z,98784.52
2023-01-04T00:19:19.289Z,98786.60
2023-01-04T00:21:47.448Z,98790.52
2023-01-04T00:24:15.594Z,98796.66
2023-01-04T00:26:43.731Z,98801.22
2023-01-04T00:29:13.636Z,98805.35
2023-01-04T00:31:44.580Z,98808.58
2023-01-04T00:34:15.883Z,98808.54
2023-01-04T00:36:44.864Z,98810.63
2023-01-04T00:39:16.009Z,98811.53
2023-01-04T00:42:01.716Z,98814.04
2023-01-04T00:44:32.936Z,98813.56
2023-01-04T00:47:04.008Z,98813.86
2023-01-04T00:49:33.019Z,98819.03
2023-01-04T00:52:01.345Z,98820.67
2023-01-04T00:54:29.536Z,98821.81
2023-01-04T00:56:58.749Z,98822.16
2023-01-04T00:59:27.749Z,98821.66
2023-01-04T01:01:55.974Z,98825.35
2023-01-04T01:04:24.698Z,98825.39
2023-01-04T01:06:53.413Z,98827.00
2023-01-04T01:09:24.479Z,98828.11
2023-01-04T01:11:54.204Z,98829.47
2023-01-04T01:14:25.852Z,98823.56
2023-01-04T01:16:57.142Z,98825.28
2023-01-04T01:19:28.880Z,98823.20
2023-01-04T01:21:58.463Z,98826.61
2023-01-04T01:24:27.681Z,98826.06
2023-01-04T01:26:57.099Z,98827.73
2023-01-04T01:29:25.590Z,98823.73
2023-01-04T01:31:54.567Z,98827.17
2023-01-04T01:34:22.981Z,98826.11
2023-01-04T01:36:51.204Z,98823.38
2023-01-04T01:39:19.301Z,98822.67
2023-01-04T01:41:47.587Z,98824.50
2023-01-04T01:44:46.870Z,98823.25
2023-01-04T01:47:23.721Z,98812.23
2023-01-04T01:49:54.659Z,98818.80
2023-01-04T01:52:34.218Z,98818.41
2023-01-04T01:55:11.052Z,98818.16
2023-01-04T01:57:39.867Z,98815.16
2023-01-04T02:00:12.712Z,98814.63
2023-01-04T02:03:22.688Z,98812.27
2023-01-04T02:05:55.283Z,98815.70
2023-01-04T02:08:25.169Z,98817.01
2023-01-04T02:10:53.262Z,98809.97
2023-01-04T02:13:50.150Z,98812.98
2023-01-04T02:16:28.813Z,98809.28
2023-01-04T02:19:19.213Z,98814.52
2023-01-04T02:22:04.280Z,98812.54
2023-01-04T02:25:09.177Z,98808.17
2023-01-04T02:27:58.076Z,98807.75
2023-01-04T02:30:59.413Z,98809.83
2023-01-04T02:33:39.065Z,98807.44
2023-01-04T02:36:29.069Z,98804.73
2023-01-04T02:39:14.896Z,98815.37
2023-01-04T02:42:13.185Z,98812.73
2023-01-04T02:44:57.553Z,98818.94
2023-01-04T02:48:29.437Z,98818.76
2023-01-04T02:51:00.506Z,98819.44
2023-01-04T02:53:33.566Z,98818.16
2023-01-04T02:56:35.657Z,98819.44
2023-01-04T02:59:32.071Z,98818.59
2023-01-04T03:02:53.460Z,98817.34
2023-01-04T03:06:02.351Z,98819.86
2023-01-04T03:08:55.481Z,98818.04
2023-01-04T03:11:47.022Z,98816.02
2023-01-04T03:14:32.320Z,98811.14
2023-01-04T03:17:07.900Z,98810.09
2023-01-04T03:19:56.846Z,98809.46
2023-01-04T03:22:52.467Z,98801.73
2023-01-04T03:25:48.932Z,98803.05
2023-01-04T03:28:38.812Z,98803.00
2023-01-04T03:32:01.458Z,98802.45
2023-01-04T03:34:48.298Z,98801.30
2023-01-04T03:37:37.697Z,98804.30
2023-01-04T03:40:52.288Z,98801.45
2023-01-04T03:43:48.414Z,98804.27
2023-01-04T03:47:02.786Z,98803.52
2023-01-04T03:49:47.827Z,98802.14
2023-01-04T03:52:17.897Z,98798.77
2023-01-04T03:54:50.096Z,98801.91
2023-01-04T03:57:18.733Z,98799.85
2023-01-04T03:59:57.830Z,98798.20
2023-01-04T04:02:30.565Z,98795.48
2023-01-04T04:05:17.396Z,98794.38
2023-01-04T04:08:03.940Z,98793.23
2023-01-04T04:10:31.997Z,98795.04
2023-01-04T04:13:00.195Z,98795.50
2023-01-04T04:15:28.496Z,98791.92
2023-01-04T04:17:56.611Z,98795.13
2023-01-04T04:20:24.725Z,98792.75
2023-01-04T04:22:53.636Z,98796.14
2023-01-04T04:25:21.790Z,98805.92
2023-01-04T04:27:50.127Z,98811.77
2023-01-04T04:30:18.460Z,98817.64
2023-01-04T04:32:46.698Z,98818.48
2023-01-04T04:35:14.912Z,98823.62
2023-01-04T04:37:43.060Z,98830.98
2023-01-04T04:40:32.425Z,98832.36
2023-01-04T04:43:00.527Z,98832.36
2023-01-04T04:45:28.639Z,98838.19
2023-01-04T04:47:56.849Z,98834.27
2023-01-04T04:50:25.039Z,98835.77
2023-01-04T04:52:56.218Z,98835.23
2023-01-04T04:55:24.861Z,98834.46
2023-01-04T04:57:52.978Z,98830.23
2023-01-04T05:00:21.214Z,98831.16
2023-01-04T05:02:49.501Z,98835.58
2023-01-04T05:05:17.824Z,98839.58
2023-01-04T05:07:45.914Z,98839.17
2023-01-04T05:10:14.086Z,98843.39
2023-01-04T05:13:00.375Z,98845.77
2023-01-04T05:15:33.662Z,98846.05
2023-01-04T05:18:03.165Z,98847.84
2023-01-04T05:20:31.809Z,98845.61
2023-01-04T05:23:00.252Z,98844.36
2023-01-04T05:25:28.591Z,98847.70
2023-01-04T05:27:56.961Z,98843.40
2023-01-04T05:30:43.982Z,98845.95
2023-01-04T05:33:12.485Z,98845.27
2023-01-04T05:35:40.620Z,98845.13
2023-01-04T05:38:08.811Z,98848.53
2023-01-04T05:40:36.946Z,98852.64
2023-01-04T05:43:07.006Z,98857.05
2023-01-04T05:45:35.973Z,98858.35
2023-01-04T05:48:04.652Z,98854.69
2023-01-04T05:50:32.986Z,98859.63
2023-01-04T05:53:06.870Z,98860.50
2023-01-04T05:55:35.058Z,98868.98
2023-01-04T05:58:03.452Z,98871.83
2023-01-04T06:00:31.615Z,98877.47
2023-01-04T06:02:59.986Z,98881.30
2023-01-04T06:05:28.449Z,98880.07
2023-01-04T06:07:56.716Z,98877.70
2023-01-04T06:10:24.975Z,98879.18
2023-01-04T06:12:53.289Z,98887.05
2023-01-04T06:15:21.547Z,98891.02
2023-01-04T06:17:49.805Z,98891.88
2023-01-04T06:20:18.204Z,98894.47
2023-01-04T06:22:46.971Z,98898.91
2023-01-04T06:25:15.552Z,98897.19
2023-01-04T07:54:18.221Z,98961.39
2023-01-04T07:56:48.134Z,98966.59
2023-01-04T07:59:18.427Z,98967.93
2023-01-04T08:01:48.808Z,98962.76
2023-01-04T08:04:18.462Z,98958.25
2023-01-04T08:06:46.858Z,98960.89
2023-01-04T08:09:15.417Z,98961.58
2023-01-04T08:11:45.042Z,98968.27
2023-01-04T08:14:13.661Z,98965.57
2023-01-04T08:16:43.031Z,98964.02
2023-01-04T08:19:21.155Z,98961.93
2023-01-04T08:21:49.378Z,98960.42
2023-01-04T08:24:20.128Z,98967.78
2023-01-04T08:26:48.338Z,98968.61
2023-01-04T08:29:16.733Z,98965.80
2023-01-04T08:31:45.015Z,98969.21
2023-01-04T08:34:13.455Z,98967.89
2023-01-04T08:36:50.553Z,98963.10
2023-01-04T08:39:19.759Z,98961.65
2023-01-04T08:42:04.768Z,98964.83
2023-01-04T08:44:39.200Z,98965.19
2023-01-04T08:47:07.444Z,98968.30
2023-01-04T08:49:35.604Z,98966.83
2023-01-04T08:52:04.526Z,98966.11
2023-01-04T08:54:32.943Z,98957.59
2023-01-04T08:57:01.175Z,98954.38
2023-01-04T08:59:29.941Z,98956.27
2023-01-04T09:02:04.809Z,98956.11
2023-01-04T09:04:34.415Z,98951.74
2023-01-04T09:07:03.056Z,98952.02
2023-01-04T09:09:31.426Z,98946.88
2023-01-04T09:11:59.814Z,98943.17
2023-01-04T09:14:28.630Z,98937.69
2023-01-04T09:16:56.953Z,98928.27
2023-01-04T09:19:25.349Z,98925.39
2023-01-04T09:21:53.547Z,98915.33
2023-01-04T09:24:22.653Z,98913.95
2023-01-04T09:26:50.901Z,98910.24
2023-01-04T09:29:19.183Z,98907.30
2023-01-04T09:31:47.494Z,98903.70
2023-01-04T09:34:17.768Z,98901.33
2023-01-04T09:36:48.343Z,98900.73
2023-01-04T09:39:24.665Z,98898.88
2023-01-04T09:42:05.305Z,98888.73
2023-01-04T09:45:25.547Z,98886.67
2023-01-04T09:48:05.308Z,98884.05
2023-01-04T09:50:58.298Z,98878.44
2023-01-04T09:53:36.406Z,98874.95
2023-01-04T09:56:33.384Z,98876.98
2023-01-04T09:59:08.218Z,98872.39
2023-01-04T10:01:59.956Z,98873.43
2023-01-04T10:04:50.958Z,98875.02
2023-01-04T10:07:28.468Z,98870.85
2023-01-04T10:09:57.725Z,98872.28
2023-01-04T10:12:59.946Z,98867.35
2023-01-04T10:15:31.115Z,98858.64
2023-01-04T10:21:42.965Z,98849.94
2023-01-04T10:24:49.729Z,98846.32
2023-01-04T10:27:52.597Z,98846.14
2023-01-04T10:30:36.557Z,98843.53
2023-01-04T10:33:26.955Z,98842.65
2023-01-04T10:35:56.463Z,98843.77
2023-01-04T10:38:33.020Z,98842.04
2023-01-04T10:41:10.073Z,98846.79
2023-01-04T10:44:12.180Z,98842.06
2023-01-04T10:46:48.032Z,98838.88
2023-01-04T10:49:59.061Z,98839.58
2023-01-04T10:52:35.975Z,98839.60
2023-01-04T10:55:25.369Z,98834.85
2023-01-04T10:58:33.412Z,98832.48
2023-01-04T11:01:10.641Z,98824.36
2023-01-04T11:03:46.832Z,98827.16
2023-01-04T11:06:25.469Z,98824.12
2023-01-04T11:08:59.332Z,98821.36
2023-01-04T11:11:35.979Z,98817.02
2023-01-04T11:14:04.468Z,98815.76
2023-01-04T11:16:32.781Z,98812.02
2023-01-04T11:19:01.626Z,98810.14
2023-01-04T11:21:39.961Z,98806.20
2023-01-04T11:27:05.548Z,98799.25
2023-01-04T11:29:58.129Z,98801.36
2023-01-04T11:33:03.041Z,98802.08
2023-01-04T11:35:44.812Z,98800.55
2023-01-04T11:38:28.165Z,98798.13
2023-01-04T11:41:00.930Z,98794.47
2023-01-04T11:43:32.577Z,98800.05
2023-01-04T11:46:21.539Z,98800.86
2023-01-04T11:48:50.935Z,98798.95
2023-01-04T11:51:28.900Z,98798.58
2023-01-04T11:54:02.521Z,98795.19
2023-01-04T11:56:40.017Z,98794.12
2023-01-04T11:59:25.252Z,98791.08
2023-01-04T12:05:28.847Z,98789.23
2023-01-04T12:08:01.197Z,98792.56
2023-01-04T12:10:29.473Z,98791.11
2023-01-04T12:13:02.508Z,98794.33
2023-01-04T12:15:48.083Z,98789.84
2023-01-04T12:18:29.284Z,98785.25
2023-01-04T12:20:58.131Z,98780.27
2023-01-04T12:23:26.421Z,98780.34
2023-01-04T12:25:56.059Z,98786.40
2023-01-04T12:28:42.314Z,98788.90
2023-01-04T12:31:20.421Z,98794.87
2023-01-04T12:33:52.318Z,98792.84
2023-01-04T12:36:41.203Z,98786.95
2023-01-04T12:39:15.231Z,98788.28
2023-01-04T12:41:45.209Z,98783.02
2023-01-04T12:44:46.735Z,98779.23
2023-01-04T12:47:36.637Z,98776.34
2023-01-04T12:50:12.335Z,98769.48
2023-01-04T12:56:02.712Z,98773.45
2023-01-04T13:01:28.030Z,98773.44
2023-01-04T13:04:22.956Z,98773.58
2023-01-04T13:06:51.882Z,98773.92
2023-01-04T13:09:24.940Z,98770.88
2023-01-04T13:12:06.981Z,98769.63
2023-01-04T13:14:55.295Z,98759.04
2023-01-04T13:17:28.249Z,98762.09
2023-01-04T13:19:57.418Z,98761.29
2023-01-04T13:22:30.256Z,98762.58
2023-01-04T13:25:01.813Z,98761.05
2023-01-04T13:27:30.437Z,98763.83
2023-01-04T13:30:01.742Z,98759.57
2023-01-04T13:32:42.363Z,98758.25
2023-01-04T13:35:21.375Z,98770.23
2023-01-04T13:37:56.207Z,98769.22
2023-01-04T13:40:34.943Z,98761.27
2023-01-04T13:44:01.293Z,98756.08
2023-01-04T13:46:52.078Z,98754.54
2023-01-04T13:49:33.173Z,98753.45
2023-01-04T13:55:36.298Z,98751.13
2023-01-04T13:58:16.910Z,98748.20
2023-01-04T14:01:15.709Z,98746.63
2023-01-04T14:04:28.728Z,98745.30
2023-01-04T14:07:00.220Z,98744.36
2023-01-04T14:09:32.892Z,98742.21
2023-01-04T14:12:17.547Z,98744.47
2023-01-04T14:14:56.367Z,98741.30
2023-01-04T14:17:48.492Z,98741.55
2023-01-04T14:20:20.009Z,98756.11
2023-01-04T14:22:48.087Z,98751.73
2023-01-04T14:25:34.172Z,98754.09
2023-01-04T14:28:33.513Z,98751.81
2023-01-04T14:31:03.537Z,98755.40
2023-01-04T14:33:41.573Z,98757.23
2023-01-04T14:36:10.062Z,98753.92
2023-01-04T14:39:08.063Z,98757.56
2023-01-04T14:42:04.171Z,98760.33
2023-01-04T14:44:36.032Z,98756.83
2023-01-04T14:47:06.459Z,98751.63
2023-01-04T14:49:34.772Z,98747.01
2023-01-04T14:52:11.321Z,98746.69
2023-01-04T14:54:39.764Z,98749.83
2023-01-04T14:57:09.969Z,98750.48
2023-01-04T14:59:38.208Z,98750.55
2023-01-04T15:02:06.498Z,98746.95
2023-01-04T15:04:34.842Z,98746.48
2023-01-04T15:07:02.971Z,98748.06
2023-01-04T15:09:31.362Z,98747.38
2023-01-04T15:11:59.560Z,98749.98
2023-01-04T15:14:27.848Z,98750.27
2023-01-04T15:16:56.077Z,98751.41
2023-01-04T15:19:24.332Z,98750.27
2023-01-04T15:21:52.689Z,98750.05
2023-01-04T15:24:20.982Z,98748.97
2023-01-04T15:26:49.188Z,98754.13
2023-01-04T15:29:17.321Z,98757.15
2023-01-04T15:31:45.579Z,98756.39
2023-01-04T15:34:16.945Z,98759.69
2023-01-04T15:36:45.169Z,98761.59
2023-01-04T15:39:14.571Z,98763.16
2023-01-04T15:42:01.463Z,98755.63
2023-01-04T15:44:29.706Z,98746.59
2023-01-04T15:46:59.752Z,98742.74
2023-01-04T15:49:30.725Z,98739.27
2023-01-04T15:51:58.885Z,98743.98
2023-01-04T15:54:28.157Z,98740.00
2023-01-04T15:56:56.781Z,98739.02
2023-01-04T15:59:26.032Z,98738.38
2023-01-04T16:01:54.588Z,98738.96
2023-01-04T16:04:23.026Z,98738.15
2023-01-04T16:06:51.269Z,98740.60
2023-01-04T16:09:20.276Z,98735.07
2023-01-04T16:12:07.258Z,98731.39
2023-01-04T16:14:35.532Z,98727.66
2023-01-04T16:17:03.906Z,98727.67
2023-01-04T16:19:34.222Z,98726.58
2023-01-04T16:22:02.433Z,98728.31
2023-01-04T16:25:08.720Z,98727.38
2023-01-04T16:27:19.465Z,98727.60
2023-01-04T16:29:52.764Z,98734.92
2023-01-04T16:32:20.909Z,98737.28
2023-01-04T16:34:51.115Z,98736.95
2023-01-04T16:37:19.613Z,98736.59
2023-01-04T16:40:06.198Z,98731.16
2023-01-04T16:42:37.258Z,98726.44
2023-01-04T16:45:06.554Z,98720.63
2023-01-04T16:47:42.778Z,98715.36
2023-01-04T16:50:12.567Z,98708.34
2023-01-04T16:52:40.911Z,98703.09
2023-01-04T16:55:10.762Z,98700.80
2023-01-04T16:57:38.992Z,98706.13
2023-01-04T17:00:08.675Z,98703.66
2023-01-04T17:02:37.102Z,98702.65
2023-01-04T17:05:05.953Z,98701.64
2023-01-04T17:07:34.685Z,98699.62
2023-01-04T17:10:02.866Z,98695.65
2023-01-04T17:12:48.402Z,98697.51
2023-01-04T17:18:06.944Z,98695.53
2023-01-04T17:20:35.296Z,98688.79
2023-01-04T17:23:03.854Z,98684.79
2023-01-04T17:25:32.243Z,98682.04
2023-01-04T17:28:00.310Z,98681.50
2023-01-04T17:30:28.426Z,98682.08
2023-01-04T17:32:56.652Z,98684.55
2023-01-04T17:35:24.770Z,98682.39
2023-01-04T17:37:53.060Z,98682.61
2023-01-04T17:40:23.504Z,98680.84
2023-01-04T17:42:52.043Z,98675.67
2023-01-04T17:45:20.542Z,98671.56
2023-01-04T17:47:48.809Z,98661.39
2023-01-04T17:50:18.859Z,98659.89
2023-01-04T17:52:50.778Z,98656.48
2023-01-04T17:55:20.630Z,98653.42
2023-01-04T17:57:48.715Z,98650.38
2023-01-04T18:00:17.526Z,98648.49
2023-01-04T18:02:45.728Z,98643.98
2023-01-04T18:05:13.961Z,98644.21
2023-01-04T18:07:42.067Z,98642.08
2023-01-04T18:10:20.661Z,98642.34
2023-01-04T18:12:55.108Z,98642.66
2023-01-04T18:15:23.218Z,98635.60
2023-01-04T18:17:51.359Z,98637.58
2023-01-04T18:20:24.705Z,98638.70
2023-01-04T18:22:53.753Z,98638.70
2023-01-04T18:25:21.908Z,98639.74
2023-01-04T18:27:50.138Z,98633.89
2023-01-04T18:30:18.377Z,98627.20
2023-01-04T18:32:46.939Z,98625.85
2023-01-04T18:35:15.198Z,98628.80
2023-01-04T18:37:45.748Z,98631.22
2023-01-04T18:40:13.894Z,98633.98
2023-01-04T18:42:49.817Z,98635.46
2023-01-04T18:45:19.214Z,98636.60
2023-01-04T18:47:47.636Z,98633.38
2023-01-04T18:50:17.780Z,98637.70
2023-01-04T18:52:46.049Z,98633.39
2023-01-04T18:55:14.964Z,98632.75
2023-01-04T18:57:43.105Z,98634.89
2023-01-04T19:00:12.577Z,98636.15
2023-01-04T19:02:40.940Z,98638.45
2023-01-04T19:05:11.200Z,98634.00
2023-01-04T19:07:39.772Z,98628.91
2023-01-04T19:10:08.840Z,98624.52
2023-01-04T19:12:38.953Z,98624.59
2023-01-04T19:15:08.987Z,98620.36
2023-01-04T19:17:38.855Z,98619.30
2023-01-04T19:20:09.082Z,98621.38
2023-01-04T19:22:38.229Z,98616.52
2023-01-04T19:25:07.614Z,98616.49
2023-01-04T19:27:36.271Z,98619.21
2023-01-04T19:30:05.859Z,98618.27
2023-01-04T19:32:34.222Z,98612.34
2023-01-04T19:35:02.815Z,98603.08
2023-01-04T19:37:31.183Z,98602.41
2023-01-04T19:40:00.475Z,98603.66
2023-01-04T19:42:29.026Z,98603.02
2023-01-04T19:44:57.355Z,98600.50
2023-01-04T19:47:25.464Z,98597.16
2023-01-04T19:49:53.806Z,98594.48
2023-01-04T19:52:22.022Z,98594.42
2023-01-04T19:54:50.160Z,98594.16
2023-01-04T19:57:18.371Z,98588.58
2023-01-04T19:59:46.513Z,98593.71
2023-01-04T20:02:14.834Z,98593.16
2023-01-04T20:04:43.240Z,98587.75
2023-01-04T20:07:11.370Z,98587.55
2023-01-04T20:09:39.454Z,98587.03
2023-01-04T20:12:07.812Z,98589.59
2023-01-04T20:14:36.042Z,98584.92
2023-01-04T20:17:04.330Z,98583.48
2023-01-04T20:19:32.541Z,98580.29
2023-01-04T20:22:00.731Z,98578.44
2023-01-04T20:24:29.035Z,98575.54
2023-01-04T20:26:57.280Z,98575.86
2023-01-04T20:29:25.520Z,98576.89
2023-01-04T20:31:53.776Z,98576.59
2023-01-04T20:34:22.242Z,98571.99
2023-01-04T20:36:50.413Z,98568.77
2023-01-04T20:39:18.559Z,98562.99
2023-01-04T20:42:05.117Z,98562.02
2023-01-04T20:44:33.254Z,98556.77
2023-01-04T20:47:01.412Z,98555.48
2023-01-04T20:49:29.583Z,98554.38
2023-01-04T20:51:57.757Z,98551.40
2023-01-04T20:54:27.291Z,98544.78
2023-01-04T20:56:55.361Z,98543.84
2023-01-04T20:59:23.504Z,98540.42
2023-01-04T21:01:51.784Z,98539.11
2023-01-04T21:04:20.012Z,98534.69
2023-01-04T21:06:48.180Z,98534.99
2023-01-04T21:09:16.410Z,98535.50
2023-01-04T21:11:44.574Z,98526.19
2023-01-04T21:14:13.301Z,98520.99
2023-01-04T21:16:42.070Z,98530.48
2023-01-04T21:19:10.299Z,98525.38
2023-01-04T21:21:38.903Z,98530.42
2023-01-04T21:24:07.539Z,98526.85
2023-01-04T21:26:35.652Z,98525.58
2023-01-04T21:29:03.813Z,98529.32
2023-01-04T21:31:31.988Z,98530.96
2023-01-04T21:34:01.217Z,98526.24
2023-01-04T21:36:29.419Z,98530.16
2023-01-04T21:38:59.196Z,98527.84
2023-01-04T21:41:27.444Z,98526.54
2023-01-04T21:43:58.331Z,98528.73
2023-01-04T21:46:26.739Z,98526.91
2023-01-04T21:49:01.470Z,98526.48
2023-01-04T21:51:30.557Z,98526.55
2023-01-04T21:53:58.957Z,98520.20
2023-01-04T21:56:27.661Z,98520.87
2023-01-04T21:58:55.874Z,98524.30
2023-01-04T22:01:34.140Z,98533.41
2023-01-04T22:04:04.449Z,98534.95
2023-01-04T22:06:34.201Z,98530.45
2023-01-04T22:09:02.287Z,98523.41
2023-01-04T22:11:30.473Z,98523.13
2023-01-04T22:13:58.601Z,98513.85
2023-01-04T22:16:26.901Z,98502.16
2023-01-04T22:18:55.174Z,98495.50
2023-01-04T22:21:26.871Z,98500.23
2023-01-04T22:23:55.321Z,98498.08
2023-01-04T22:26:23.445Z,98494.89
2023-01-04T22:28:51.658Z,98481.37
2023-01-04T22:31:19.879Z,98467.71
2023-01-04T22:33:48.051Z,98461.95
2023-01-04T22:36:22.993Z,98458.19
2023-01-04T22:38:53.976Z,98455.91
2023-01-04T22:41:26.039Z,98445.73
2023-01-04T22:44:03.351Z,98429.64
2023-01-04T22:46:34.534Z,98423.05
2023-01-04T22:49:03.477Z,98425.79
2023-01-04T22:51:31.831Z,98420.83
2023-01-04T22:54:02.485Z,98407.77
2023-01-04T22:56:30.646Z,98404.88
2023-01-04T22:58:59.114Z,98407.92
2023-01-04T23:01:31.361Z,98410.21
2023-01-04T23:04:01.783Z,98404.89
2023-01-04T23:06:31.744Z,98404.86
2023-01-04T23:09:07.828Z,98389.48
2023-01-04T23:11:37.307Z,98376.14
2023-01-04T23:14:08.293Z,98368.48
2023-01-04T23:16:36.544Z,98369.21
2023-01-04T23:19:06.756Z,98372.17
2023-01-04T23:21:35.538Z,98367.86
2023-01-04T23:24:05.317Z,98365.06
2023-01-04T23:26:34.466Z,98359.70
2023-01-04T23:29:03.586Z,98350.15
2023-01-04T23:31:33.191Z,98344.60
2023-01-04T23:34:04.379Z,98343.84
2023-01-04T23:36:38.489Z,98350.85
2023-01-04T23:39:12.367Z,98354.58
2023-01-04T23:41:46.977Z,98350.43
2023-01-04T23:44:28.363Z,98347.52
2023-01-04T23:47:07.257Z,98342.40
2023-01-04T23:49:38.015Z,98344.17
2023-01-04T23:52:07.430Z,98338.17
2023-01-04T23:54:35.570Z,98331.86
2023-01-04T23:57:04.403Z,98326.05
2023-01-04T23:59:32.764Z,98323.99
